You are listening to:
KAUS App/Dep #1 - Austin, Texas, United States

KAUS 230953Z 00000KT 10SM CLR 11/11 A3005 RMK AO2 SLP174 T01110106

If stream doesn't start automatically press the play button
If stream stops then reload player then press play